createdAt,value
2022-12-18T00:00:12.180Z,1.10
2022-12-18T00:02:50.350Z,0.88
2022-12-18T00:05:28.094Z,1.02
2022-12-18T00:08:09.472Z,1.08
2022-12-18T00:10:47.104Z,1.10
2022-12-18T00:13:22.403Z,1.15
2022-12-18T00:15:59.368Z,1.30
2022-12-18T00:18:39.075Z,0.80
2022-12-18T00:21:19.792Z,0.80
2022-12-18T00:23:56.196Z,0.90
2022-12-18T00:26:37.152Z,0.82
2022-12-18T00:29:16.999Z,1.00
2022-12-18T00:31:56.150Z,0.93
2022-12-18T00:34:33.451Z,0.88
2022-12-18T00:37:13.418Z,0.80
2022-12-18T00:39:57.689Z,0.95
2022-12-18T00:42:49.915Z,1.38
2022-12-18T00:45:27.843Z,1.08
2022-12-18T00:48:05.807Z,0.90
2022-12-18T00:50:41.084Z,1.20
2022-12-18T00:53:28.247Z,1.20
2022-12-18T00:56:04.782Z,1.30
2022-12-18T00:58:40.325Z,1.27
2022-12-18T01:01:16.938Z,1.10
2022-12-18T01:03:53.748Z,1.00
2022-12-18T01:06:29.326Z,0.85
2022-12-18T01:09:09.793Z,0.98
2022-12-18T01:11:48.895Z,0.90
2022-12-18T01:14:25.682Z,1.15
2022-12-18T01:17:07.723Z,1.33
2022-12-18T01:19:43.713Z,1.55
2022-12-18T01:22:19.694Z,1.20
2022-12-18T01:24:58.452Z,1.50
2022-12-18T01:27:35.060Z,1.20
2022-12-18T01:30:13.594Z,1.80
2022-12-18T01:32:50.905Z,1.23
2022-12-18T01:35:27.185Z,0.90
2022-12-18T01:38:02.010Z,1.38
2022-12-18T01:40:38.980Z,1.50
2022-12-18T01:43:18.220Z,1.50
2022-12-18T01:45:55.698Z,1.70
2022-12-18T01:48:33.405Z,1.83
2022-12-18T01:51:08.332Z,1.52
2022-12-18T01:53:44.103Z,1.58
2022-12-18T01:56:37.234Z,1.38
2022-12-18T01:59:18.994Z,1.90
2022-12-18T02:01:57.988Z,2.15
2022-12-18T02:04:41.940Z,1.70
2022-12-18T02:07:25.579Z,1.50
2022-12-18T02:10:03.456Z,1.45
2022-12-18T02:12:44.933Z,1.50
2022-12-18T02:15:31.943Z,1.55
2022-12-18T02:18:11.934Z,2.13
2022-12-18T02:20:50.056Z,1.63
2022-12-18T02:23:33.514Z,2.20
2022-12-18T02:26:24.798Z,1.50
2022-12-18T02:29:04.563Z,1.60
2022-12-18T02:31:42.777Z,1.85
2022-12-18T02:34:19.105Z,1.48
2022-12-18T02:36:55.607Z,1.35
2022-12-18T02:39:35.391Z,1.63
2022-12-18T02:42:14.269Z,1.67
2022-12-18T02:44:49.859Z,2.08
2022-12-18T02:47:33.568Z,1.55
2022-12-18T02:50:13.149Z,1.35
2022-12-18T02:52:53.021Z,1.48
2022-12-18T02:55:40.525Z,1.48
2022-12-18T02:58:24.971Z,1.63
2022-12-18T03:01:04.862Z,1.67
2022-12-18T03:03:42.748Z,1.63
2022-12-18T03:06:19.902Z,1.40
2022-12-18T03:08:58.002Z,1.65
2022-12-18T03:11:52.277Z,1.63
2022-12-18T03:14:32.490Z,1.80
2022-12-18T03:17:11.139Z,1.58
2022-12-18T03:19:49.301Z,1.50
2022-12-18T03:22:26.479Z,1.70
2022-12-18T03:25:06.302Z,1.40
2022-12-18T03:27:47.849Z,1.90
2022-12-18T03:30:29.379Z,1.75
2022-12-18T03:33:13.013Z,1.95
2022-12-18T03:35:53.298Z,1.95
2022-12-18T03:38:29.750Z,2.40
2022-12-18T03:41:10.510Z,2.13
2022-12-18T03:44:06.137Z,1.88
2022-12-18T03:46:50.023Z,1.98
2022-12-18T03:49:28.242Z,1.73
2022-12-18T03:52:12.540Z,2.13
2022-12-18T03:54:52.632Z,2.15
2022-12-18T03:57:34.372Z,1.90
2022-12-18T04:00:15.728Z,2.22
2022-12-18T04:03:11.452Z,1.77
2022-12-18T04:05:53.034Z,2.03
2022-12-18T04:08:30.830Z,1.80
2022-12-18T04:11:15.742Z,2.00
2022-12-18T04:13:56.024Z,2.17
2022-12-18T04:16:32.596Z,1.70
2022-12-18T04:19:14.001Z,2.40
2022-12-18T04:21:56.309Z,1.80
2022-12-18T04:24:33.497Z,1.73
2022-12-18T04:27:15.545Z,1.80
2022-12-18T04:29:55.730Z,1.20
2022-12-18T04:32:34.589Z,1.23
2022-12-18T04:35:13.920Z,1.40
2022-12-18T04:37:52.522Z,1.50
2022-12-18T04:40:33.916Z,1.42
2022-12-18T04:43:12.882Z,1.40
2022-12-18T04:45:49.088Z,1.60
2022-12-18T04:48:25.018Z,1.65
2022-12-18T04:51:03.316Z,1.63
2022-12-18T04:53:39.471Z,1.83
2022-12-18T04:56:18.009Z,1.60
2022-12-18T04:58:54.401Z,1.60
2022-12-18T05:01:34.955Z,1.67
2022-12-18T05:04:13.484Z,1.75
2022-12-18T05:06:53.249Z,1.60
2022-12-18T05:09:31.731Z,1.52
2022-12-18T05:12:07.717Z,1.50
2022-12-18T05:14:46.748Z,1.48
2022-12-18T05:17:23.281Z,1.55
2022-12-18T05:20:00.252Z,1.10
2022-12-18T05:22:39.358Z,1.20
2022-12-18T05:25:15.377Z,1.35
2022-12-18T05:27:50.179Z,1.10
2022-12-18T05:30:25.380Z,1.23
2022-12-18T05:33:00.178Z,0.90
2022-12-18T05:35:35.524Z,1.40
2022-12-18T05:38:15.284Z,1.20
2022-12-18T05:40:52.713Z,1.48
2022-12-18T05:43:28.261Z,1.33
2022-12-18T05:46:09.826Z,1.58
2022-12-18T05:48:48.194Z,1.20
2022-12-18T05:51:27.969Z,1.20
2022-12-18T05:54:06.289Z,1.10
2022-12-18T05:56:48.510Z,1.42
2022-12-18T05:59:24.694Z,1.20
2022-12-18T06:02:04.337Z,1.60
2022-12-18T06:04:44.141Z,1.70
2022-12-18T06:07:28.309Z,1.48
2022-12-18T06:10:09.278Z,1.40
2022-12-18T06:12:51.154Z,1.48
2022-12-18T06:15:29.690Z,1.60
2022-12-18T06:18:12.929Z,1.70
2022-12-18T06:20:48.612Z,1.60
2022-12-18T06:23:24.685Z,2.10
2022-12-18T06:26:04.791Z,1.50
2022-12-18T06:28:43.415Z,1.77
2022-12-18T06:31:18.732Z,2.15
2022-12-18T06:33:56.997Z,1.55
2022-12-18T06:36:32.514Z,1.30
2022-12-18T06:39:12.210Z,1.67
2022-12-18T06:41:50.533Z,1.35
2022-12-18T06:44:28.973Z,1.70
2022-12-18T06:47:07.856Z,1.42
2022-12-18T06:49:47.627Z,1.20
2022-12-18T06:52:28.879Z,1.35
2022-12-18T06:55:08.556Z,1.30
2022-12-18T06:57:47.894Z,1.40
2022-12-18T07:00:24.238Z,1.48
2022-12-18T07:03:03.934Z,1.20
2022-12-18T07:05:40.347Z,1.20
2022-12-18T07:08:15.609Z,1.42
2022-12-18T07:10:56.479Z,1.42
2022-12-18T07:13:34.151Z,1.50
2022-12-18T07:16:20.837Z,1.50
2022-12-18T07:18:57.641Z,1.30
2022-12-18T07:21:33.259Z,2.28
2022-12-18T07:24:08.363Z,1.85
2022-12-18T07:26:43.696Z,1.48
2022-12-18T07:29:21.144Z,1.42
2022-12-18T07:31:59.816Z,1.73
2022-12-18T07:34:38.000Z,1.60
2022-12-18T07:37:15.412Z,1.60
2022-12-18T07:39:51.009Z,1.58
2022-12-18T07:42:37.476Z,1.50
2022-12-18T07:45:16.362Z,1.52
2022-12-18T07:47:52.409Z,1.40
2022-12-18T07:50:28.073Z,1.90
2022-12-18T07:53:06.221Z,1.92
2022-12-18T07:56:05.357Z,1.70
2022-12-18T07:58:39.066Z,1.85
2022-12-18T08:01:19.647Z,2.05
2022-12-18T08:03:59.392Z,1.60
2022-12-18T08:06:35.483Z,1.40
2022-12-18T08:09:11.827Z,1.50
2022-12-18T08:11:47.342Z,1.55
2022-12-18T08:14:23.892Z,1.50
2022-12-18T08:17:04.167Z,1.35
2022-12-18T08:19:40.894Z,1.60
2022-12-18T08:22:15.782Z,1.20
2022-12-18T08:24:52.197Z,1.30
2022-12-18T08:27:29.761Z,1.40
2022-12-18T08:30:06.984Z,1.65
2022-12-18T08:32:45.834Z,1.42
2022-12-18T08:35:21.503Z,1.25
2022-12-18T08:37:56.430Z,1.05
2022-12-18T08:40:32.100Z,1.45
2022-12-18T08:43:22.824Z,1.42
2022-12-18T08:45:58.406Z,1.70
2022-12-18T08:48:35.519Z,1.13
2022-12-18T08:51:12.333Z,1.67
2022-12-18T08:53:49.299Z,2.10
2022-12-18T08:56:25.776Z,1.45
2022-12-18T08:59:03.330Z,1.80
2022-12-18T09:01:39.627Z,1.65
2022-12-18T09:04:17.136Z,1.52
2022-12-18T09:06:52.631Z,1.77
2022-12-18T09:09:27.111Z,1.63
2022-12-18T09:12:03.397Z,1.17
2022-12-18T09:14:42.042Z,1.40
2022-12-18T09:17:20.649Z,1.25
2022-12-18T09:19:58.208Z,1.15
2022-12-18T09:22:33.555Z,1.60
2022-12-18T09:25:10.691Z,1.20
2022-12-18T09:27:46.306Z,1.20
2022-12-18T09:30:20.982Z,1.40
2022-12-18T09:32:56.387Z,1.30
2022-12-18T09:35:33.826Z,1.90
2022-12-18T09:38:09.230Z,1.40
2022-12-18T09:40:48.990Z,1.20
2022-12-18T09:43:26.359Z,1.13
2022-12-18T09:46:03.148Z,1.38
2022-12-18T09:48:41.651Z,1.33
2022-12-18T09:51:21.455Z,2.30
2022-12-18T09:53:58.802Z,1.65
2022-12-18T09:56:41.169Z,1.48
2022-12-18T09:59:22.584Z,1.35
2022-12-18T10:01:57.322Z,1.50
2022-12-18T10:04:35.763Z,1.60
2022-12-18T10:07:16.314Z,1.83
2022-12-18T10:09:58.105Z,1.42
2022-12-18T10:12:36.243Z,1.90
2022-12-18T10:15:13.746Z,1.25
2022-12-18T10:17:52.361Z,1.83
2022-12-18T10:20:30.358Z,1.55
2022-12-18T10:23:11.067Z,1.55
2022-12-18T10:25:49.307Z,1.65
2022-12-18T10:28:25.615Z,1.63
2022-12-18T10:31:01.211Z,1.70
2022-12-18T10:33:36.635Z,1.50
2022-12-18T10:36:12.239Z,1.80
2022-12-18T10:38:49.335Z,1.40
2022-12-18T10:41:33.545Z,1.52
2022-12-18T10:44:18.706Z,1.52
2022-12-18T10:46:55.303Z,1.60
2022-12-18T10:49:31.815Z,1.50
2022-12-18T10:52:18.138Z,1.65
2022-12-18T10:54:57.011Z,1.55
2022-12-18T10:57:38.325Z,1.98
2022-12-18T11:00:26.811Z,1.70
2022-12-18T11:03:03.251Z,2.08
2022-12-18T11:05:39.763Z,2.17
2022-12-18T11:08:26.446Z,2.15
2022-12-18T11:11:03.924Z,2.30
2022-12-18T11:13:39.359Z,2.22
2022-12-18T11:16:14.189Z,1.70
2022-12-18T11:18:49.705Z,1.90
2022-12-18T11:21:24.905Z,1.95
2022-12-18T11:24:00.363Z,2.42
2022-12-18T11:26:42.851Z,1.85
2022-12-18T11:29:22.596Z,1.83
2022-12-18T11:31:57.355Z,1.70
2022-12-18T11:34:34.897Z,1.90
2022-12-18T11:37:09.900Z,1.70
2022-12-18T11:39:48.845Z,2.15
2022-12-18T11:42:29.306Z,1.63
2022-12-18T11:45:05.773Z,1.80
2022-12-18T11:47:44.799Z,1.70
2022-12-18T11:50:20.697Z,1.40
2022-12-18T11:52:58.327Z,1.52
2022-12-18T11:55:39.782Z,1.35
2022-12-18T11:58:19.499Z,1.25
2022-12-18T12:00:58.315Z,1.50
2022-12-18T12:03:44.320Z,1.63
2022-12-18T12:06:21.547Z,1.25
2022-12-18T12:09:04.352Z,1.40
2022-12-18T12:11:47.490Z,1.60
2022-12-18T12:14:37.924Z,1.80
2022-12-18T12:17:20.738Z,2.00
2022-12-18T12:19:58.785Z,1.60
2022-12-18T12:22:39.391Z,1.85
2022-12-18T12:25:28.353Z,1.80
2022-12-18T12:28:07.601Z,2.03
2022-12-18T12:30:47.887Z,1.60
2022-12-18T12:33:28.312Z,1.60
2022-12-18T12:36:08.193Z,1.50
2022-12-18T12:38:51.946Z,1.98
2022-12-18T12:41:44.445Z,1.65
2022-12-18T12:44:21.832Z,1.50
2022-12-18T12:47:05.691Z,1.63
2022-12-18T12:49:44.079Z,1.80
2022-12-18T12:52:27.335Z,1.92
2022-12-18T12:55:04.138Z,2.10
2022-12-18T12:57:43.757Z,2.10
2022-12-18T13:00:22.653Z,2.00
2022-12-18T13:03:09.124Z,1.92
2022-12-18T13:05:51.890Z,2.35
2022-12-18T13:08:35.322Z,2.28
2022-12-18T13:11:57.841Z,2.65
2022-12-18T13:14:38.742Z,2.40
2022-12-18T13:17:36.999Z,2.58
2022-12-18T13:20:19.933Z,2.63
2022-12-18T13:22:57.984Z,3.17
2022-12-18T13:25:38.015Z,3.30
2022-12-18T13:28:16.988Z,3.13
2022-12-18T13:31:01.901Z,3.72
2022-12-18T13:34:24.376Z,3.72
2022-12-18T13:36:47.095Z,4.45
2022-12-18T13:39:39.926Z,3.40
2022-12-18T13:43:01.578Z,3.72
2022-12-18T13:45:50.236Z,3.75
2022-12-18T13:48:29.674Z,3.95
2022-12-18T13:51:10.119Z,3.78
2022-12-18T13:53:52.199Z,4.05
2022-12-18T13:56:31.025Z,3.90
2022-12-18T13:59:25.390Z,3.85
2022-12-18T14:02:04.578Z,3.72
2022-12-18T14:04:40.919Z,3.88
2022-12-18T14:07:20.462Z,3.30
2022-12-18T14:13:03.317Z,3.25
2022-12-18T14:15:41.532Z,3.35
2022-12-18T14:18:28.809Z,3.20
2022-12-18T14:21:07.095Z,3.20
2022-12-18T14:23:44.248Z,3.30
2022-12-18T14:26:33.078Z,2.97
2022-12-18T14:29:26.356Z,3.20
2022-12-18T14:32:19.986Z,2.90
2022-12-18T14:34:56.699Z,2.95
2022-12-18T14:37:33.949Z,3.28
2022-12-18T14:40:11.620Z,2.85
2022-12-18T14:42:49.872Z,2.65
2022-12-18T14:45:45.882Z,2.80
2022-12-18T14:48:24.193Z,2.60
2022-12-18T14:51:05.444Z,3.05
2022-12-18T14:53:52.120Z,2.90
2022-12-18T14:56:31.871Z,2.92
2022-12-18T14:59:11.133Z,2.63
2022-12-18T15:01:52.453Z,2.58
2022-12-18T15:04:33.683Z,2.53
2022-12-18T15:07:17.463Z,2.55
2022-12-18T15:10:09.989Z,2.78
2022-12-18T15:12:47.351Z,2.63
2022-12-18T15:15:53.642Z,2.38
2022-12-18T15:18:36.083Z,2.33
2022-12-18T15:21:16.997Z,2.70
2022-12-18T15:23:55.255Z,2.58
2022-12-18T15:26:31.441Z,2.80
2022-12-18T15:29:11.401Z,3.38
2022-12-18T15:32:06.224Z,2.70
2022-12-18T15:34:45.137Z,3.40
2022-12-18T15:37:20.990Z,3.45
2022-12-18T15:39:57.982Z,3.05
2022-12-18T15:42:48.746Z,2.85
2022-12-18T15:45:24.206Z,3.38
2022-12-18T15:48:01.607Z,3.13
2022-12-18T15:50:36.794Z,3.40
2022-12-18T15:53:11.356Z,3.88
2022-12-18T15:56:01.716Z,3.80
2022-12-18T15:58:37.067Z,3.80
2022-12-18T16:01:11.927Z,3.42
2022-12-18T16:03:48.675Z,3.78
2022-12-18T16:06:24.078Z,4.00
2022-12-18T16:08:59.998Z,3.70
2022-12-18T16:11:45.008Z,4.20
2022-12-18T16:14:23.265Z,4.07
2022-12-18T16:17:08.128Z,3.35
2022-12-18T16:19:45.704Z,4.00
2022-12-18T16:22:30.600Z,4.15
2022-12-18T16:25:05.385Z,3.70
2022-12-18T16:27:39.941Z,3.88
2022-12-18T16:30:20.132Z,3.75
2022-12-18T16:32:58.184Z,4.05
2022-12-18T16:35:35.908Z,4.15
2022-12-18T16:38:13.155Z,3.95
2022-12-18T16:41:02.254Z,3.22
2022-12-18T16:43:37.918Z,3.17
2022-12-18T16:46:13.569Z,3.53
2022-12-18T16:48:49.041Z,3.17
2022-12-18T16:51:29.449Z,3.30
2022-12-18T16:54:10.296Z,3.60
2022-12-18T16:56:51.530Z,4.10
2022-12-18T16:59:28.377Z,3.92
2022-12-18T17:02:10.565Z,3.80
2022-12-18T17:04:46.114Z,3.60
2022-12-18T17:07:23.695Z,2.63
2022-12-18T17:10:00.308Z,2.88
2022-12-18T17:12:36.800Z,3.10
2022-12-18T17:15:13.442Z,2.85
2022-12-18T17:17:49.077Z,2.65
2022-12-18T17:20:24.499Z,2.67
2022-12-18T17:23:03.769Z,3.10
2022-12-18T17:25:43.906Z,2.85
2022-12-18T17:28:19.357Z,2.78
2022-12-18T17:30:54.860Z,3.25
2022-12-18T17:33:32.116Z,2.78
2022-12-18T17:36:07.653Z,3.50
2022-12-18T17:38:45.101Z,4.13
2022-12-18T17:41:21.178Z,3.72
2022-12-18T17:44:02.196Z,4.00
2022-12-18T17:46:38.756Z,4.30
2022-12-18T17:49:15.093Z,4.85
2022-12-18T17:51:50.511Z,4.50
2022-12-18T17:54:28.998Z,4.22
2022-12-18T17:57:04.924Z,4.75
2022-12-18T17:59:40.678Z,4.07
2022-12-18T18:02:16.865Z,3.92
2022-12-18T18:04:54.114Z,4.63
2022-12-18T18:07:29.618Z,4.28
2022-12-18T18:10:06.992Z,4.22
2022-12-18T18:12:58.760Z,4.55
2022-12-18T18:15:35.324Z,4.30
2022-12-18T18:18:12.880Z,3.70
2022-12-18T18:20:50.868Z,4.25
2022-12-18T18:23:30.344Z,3.97
2022-12-18T18:26:12.306Z,4.07
2022-12-18T18:28:48.742Z,4.03
2022-12-18T18:31:28.602Z,3.60
2022-12-18T18:34:04.552Z,3.95
2022-12-18T18:36:41.614Z,3.50
2022-12-18T18:39:17.671Z,3.70
2022-12-18T18:41:56.381Z,3.45
2022-12-18T18:44:32.885Z,5.35
2022-12-18T18:47:09.847Z,3.40
2022-12-18T18:49:45.290Z,3.55
2022-12-18T18:52:20.929Z,3.55
2022-12-18T18:55:12.098Z,3.20
2022-12-18T18:57:51.484Z,3.10
2022-12-18T19:00:28.274Z,2.97
2022-12-18T19:03:04.710Z,3.50
2022-12-18T19:05:43.044Z,3.00
2022-12-18T19:08:22.807Z,3.13
2022-12-18T19:10:59.829Z,3.22
2022-12-18T19:13:37.082Z,3.05
2022-12-18T19:16:14.697Z,3.00
2022-12-18T19:18:51.608Z,3.00
2022-12-18T19:21:27.763Z,3.50
2022-12-18T19:24:05.943Z,2.72
2022-12-18T19:26:44.653Z,3.45
2022-12-18T19:29:23.055Z,3.45
2022-12-18T19:31:59.554Z,2.90
2022-12-18T19:34:35.575Z,3.10
2022-12-18T19:37:11.916Z,2.88
2022-12-18T19:39:48.514Z,3.03
2022-12-18T19:42:29.447Z,2.92
2022-12-18T19:45:11.661Z,2.83
2022-12-18T19:47:48.326Z,3.08
2022-12-18T19:50:25.292Z,2.90
2022-12-18T19:53:01.370Z,2.90
2022-12-18T19:55:37.090Z,2.85
2022-12-18T19:58:13.125Z,3.22
2022-12-18T20:00:51.586Z,2.60
2022-12-18T20:03:32.294Z,2.90
2022-12-18T20:06:19.203Z,2.95
2022-12-18T20:09:00.236Z,2.88
2022-12-18T20:11:41.250Z,3.20
2022-12-18T20:14:23.100Z,3.25
2022-12-18T20:17:01.754Z,3.13
2022-12-18T20:19:37.758Z,2.95
2022-12-18T20:22:14.801Z,3.30
2022-12-18T20:24:50.641Z,2.90
2022-12-18T20:27:27.538Z,2.97
2022-12-18T20:30:02.367Z,2.95
2022-12-18T20:32:40.441Z,2.67
2022-12-18T20:35:15.705Z,3.25
2022-12-18T20:37:51.383Z,3.13
2022-12-18T20:40:26.626Z,3.17
2022-12-18T20:43:02.375Z,3.13
2022-12-18T20:45:38.898Z,3.22
2022-12-18T20:48:22.283Z,2.88
2022-12-18T20:51:04.043Z,2.88
2022-12-18T20:53:40.260Z,2.97
2022-12-18T20:56:21.946Z,3.50
2022-12-18T20:58:57.027Z,3.38
2022-12-18T21:01:32.492Z,3.08
2022-12-18T21:04:10.318Z,2.92
2022-12-18T21:06:49.480Z,3.03
2022-12-18T21:09:26.969Z,3.47
2022-12-18T21:12:17.965Z,3.10
2022-12-18T21:14:53.468Z,3.28
2022-12-18T21:17:28.680Z,2.90
2022-12-18T21:20:07.203Z,2.97
2022-12-18T21:22:43.254Z,3.33
2022-12-18T21:25:19.070Z,2.75
2022-12-18T21:27:54.284Z,3.10
2022-12-18T21:30:29.202Z,3.42
2022-12-18T21:33:04.423Z,3.10
2022-12-18T21:35:42.615Z,3.08
2022-12-18T21:38:17.437Z,2.90
2022-12-18T21:40:52.190Z,2.97
2022-12-18T21:43:43.166Z,2.72
2022-12-18T21:46:19.035Z,2.95
2022-12-18T21:48:55.315Z,2.90
2022-12-18T21:51:32.987Z,3.20
2022-12-18T21:54:09.386Z,3.28
2022-12-18T21:56:57.680Z,3.20
2022-12-18T21:59:33.790Z,3.60
2022-12-18T22:02:09.171Z,4.40
2022-12-18T22:04:44.112Z,4.07
2022-12-18T22:07:23.153Z,4.13
2022-12-18T22:09:58.045Z,4.03
2022-12-18T22:12:43.660Z,3.50
2022-12-18T22:15:21.863Z,3.75
2022-12-18T22:18:00.192Z,4.10
2022-12-18T22:20:36.181Z,4.30
2022-12-18T22:23:14.933Z,4.00
2022-12-18T22:25:50.050Z,3.90
2022-12-18T22:28:41.639Z,3.95
2022-12-18T22:31:16.819Z,4.15
2022-12-18T22:33:51.569Z,3.92
2022-12-18T22:36:26.955Z,4.20
2022-12-18T22:39:05.041Z,4.40
2022-12-18T22:41:40.047Z,3.92
2022-12-18T22:44:14.994Z,4.40
2022-12-18T22:47:00.663Z,4.05
2022-12-18T22:49:43.097Z,4.20
2022-12-18T22:52:18.956Z,4.25
2022-12-18T22:55:00.561Z,4.28
2022-12-18T22:57:36.646Z,3.70
2022-12-18T23:00:15.709Z,4.05
2022-12-18T23:02:59.253Z,4.43
2022-12-18T23:05:36.520Z,3.80
2022-12-18T23:08:12.028Z,3.72
2022-12-18T23:10:51.430Z,3.97
2022-12-18T23:13:27.204Z,4.13
2022-12-18T23:16:02.971Z,4.28
2022-12-18T23:18:38.709Z,4.10
2022-12-18T23:21:28.574Z,3.95
2022-12-18T23:24:04.437Z,3.95
2022-12-18T23:26:42.085Z,4.20
2022-12-18T23:29:16.941Z,3.75
2022-12-18T23:31:52.811Z,3.92
2022-12-18T23:34:27.772Z,3.58
2022-12-18T23:37:05.871Z,3.70
2022-12-18T23:39:42.902Z,3.78
2022-12-18T23:42:22.898Z,3.90
2022-12-18T23:45:00.795Z,4.00
2022-12-18T23:47:39.823Z,4.20
2022-12-18T23:50:14.647Z,4.07
2022-12-18T23:52:50.898Z,3.95
2022-12-18T23:55:27.622Z,4.22
2022-12-18T23:58:05.318Z,3.80
